Aviation Digital Data Service (ADDS)

Output produced by METARs form (0358 UTC 17 October 2017)
found at http://www.aviationweather.gov/adds/metars/
 
KWWD 170355Z AUTO 02010KT 10SM CLR 09/03 A3023 RMK AO2 SLP238 T00940028 402220089